Time;durP1;ratioP1;P1;durP2;ratioP2;P2;SDS_P1;SDS_P2;PMS_P1;PMS_P2;Temp;Humidity;BMP_temperature;BMP_pressure;BME280_temperature;BME280_humidity;BME280_pressure;Samples;Min_cycle;Max_cycle;Signal;HPM_P1;HPM_P2
2023/10/12 00:00:33;;;;;;;;;;;;;;;16.32;59.46;97967.19;5113509;27;19923;-64
2023/10/12 00:03:25;;;;;;;;;;;;;;;16.23;59.85;97961.84;5117545;27;19923;-64
2023/10/12 00:06:18;;;;;;;;;;;;;;;16.22;59.82;97957.50;5116811;27;19923;-64
2023/10/12 00:09:17;;;;;;;;;;;;;;;16.20;59.53;97946.91;5112866;27;20043;-64
2023/10/12 00:12:08;;;;;;;;;;;;;;;16.14;59.97;97953.78;5110292;27;19928;-64
2023/10/12 00:14:56;;;;;;;;;;;;;;;15.98;60.51;97939.22;5111418;27;20068;-64
2023/10/12 00:17:44;;;;;;;;;;;;;;;15.90;60.64;97934.63;5100431;27;19954;-64
2023/10/12 00:20:35;;;;;;;;;;;;;;;15.85;60.72;97945.84;5107414;27;20329;-64
2023/10/12 00:23:26;;;;;;;;;;;;;;;15.75;61.10;97938.09;5109957;27;19963;-64
2023/10/12 00:26:16;;;;;;;;;;;;;;;15.77;60.85;97939.34;5105318;27;19963;-64
2023/10/12 00:29:06;;;;;;;;;;;;;;;15.79;60.77;97937.06;5112683;27;19927;-64
2023/10/12 00:31:57;;;;;;;;;;;;;;;15.80;60.64;97941.38;5098292;28;19924;-64
2023/10/12 00:34:47;;;;;;;;;;;;;;;15.80;60.85;97929.63;5101286;28;19931;-64
2023/10/12 00:37:36;;;;;;;;;;;;;;;15.81;60.67;97931.22;5108226;27;19923;-64
2023/10/12 00:40:30;;;;;;;;;;;;;;;15.83;60.67;97918.78;5110590;27;19973;-64
2023/10/12 00:43:21;;;;;;;;;;;;;;;15.83;60.74;97934.44;5107796;27;19930;-64
2023/10/12 00:46:21;;;;;;;;;;;;;;;15.82;60.76;97924.59;5116108;28;20028;-63
2023/10/12 00:49:17;;;;;;;;;;;;;;;15.86;60.42;97922.78;5097139;28;19924;-64
2023/10/12 00:52:13;;;;;;;;;;;;;;;15.92;60.32;97921.38;5117306;27;19924;-63
2023/10/12 00:55:20;;;;;;;;;;;;;;;15.97;60.21;97921.16;5101267;27;20451;-64
2023/10/12 00:58:14;;;;;;;;;;;;;;;15.93;60.20;97917.53;5118673;27;20451;-64
2023/10/12 01:01:04;;;;;;;;;;;;;;;15.96;60.15;97905.84;5105092;27;19923;-63
2023/10/12 01:03:53;;;;;;;;;;;;;;;15.92;59.98;97908.47;5110519;27;19935;-64
2023/10/12 01:06:41;;;;;;;;;;;;;;;15.90;60.18;97904.50;5107488;27;19924;-63
2023/10/12 01:09:39;;;;;;;;;;;;;;;15.91;60.08;97901.41;5116751;27;19930;-64
2023/10/12 01:12:30;;;;;;;;;;;;;;;15.87;60.31;97903.28;5115098;27;19934;-65
2023/10/12 01:15:26;;;;;;;;;;;;;;;15.88;60.08;97898.59;5114172;27;19924;-65
2023/10/12 01:18:16;;;;;;;;;;;;;;;15.87;60.24;97902.44;5109803;27;19930;-64
2023/10/12 01:21:11;;;;;;;;;;;;;;;15.84;60.15;97900.41;5105266;28;19932;-64
2023/10/12 01:24:04;;;;;;;;;;;;;;;15.82;60.31;97897.19;5105644;28;19924;-63
2023/10/12 01:26:53;;;;;;;;;;;;;;;15.79;60.61;97906.13;5101340;27;20296;-64
2023/10/12 01:29:41;;;;;;;;;;;;;;;15.78;60.35;97902.59;5090586;27;19923;-64
2023/10/12 01:32:29;;;;;;;;;;;;;;;15.76;60.46;97909.53;5115134;27;19974;-63
2023/10/12 01:35:23;;;;;;;;;;;;;;;15.73;60.91;97910.25;5117742;27;20023;-64
2023/10/12 01:38:14;;;;;;;;;;;;;;;15.71;60.80;97905.94;5104106;28;19928;-63
2023/10/12 01:41:09;;;;;;;;;;;;;;;15.67;61.02;97904.22;5102661;28;20014;-64
2023/10/12 01:43:58;;;;;;;;;;;;;;;15.67;60.89;97902.28;5120396;27;19924;-64
2023/10/12 01:46:49;;;;;;;;;;;;;;;15.58;61.25;97906.25;5104489;27;19946;-64
2023/10/12 01:49:39;;;;;;;;;;;;;;;15.51;61.49;97901.34;5114541;27;19927;-65
2023/10/12 01:52:27;;;;;;;;;;;;;;;15.51;61.41;97895.88;5119237;27;20392;-65
2023/10/12 01:55:28;;;;;;;;;;;;;;;15.50;61.62;97888.81;5104579;27;20376;-64
2023/10/12 01:58:20;;;;;;;;;;;;;;;15.48;61.52;97899.28;5123461;27;19928;-64
2023/10/12 02:01:13;;;;;;;;;;;;;;;15.49;61.64;97892.66;5117422;27;19934;-64
2023/10/12 02:04:03;;;;;;;;;;;;;;;15.49;61.38;97898.13;5112259;27;19956;-64
2023/10/12 02:06:52;;;;;;;;;;;;;;;15.51;61.39;97893.13;5100671;27;20616;-63
2023/10/12 02:09:41;;;;;;;;;;;;;;;15.51;61.57;97895.88;5095784;27;19924;-64
2023/10/12 02:12:31;;;;;;;;;;;;;;;15.52;61.14;97892.00;5108598;27;19923;-64
2023/10/12 02:15:23;;;;;;;;;;;;;;;15.50;61.23;97899.75;5097897;27;19924;-63
2023/10/12 02:18:15;;;;;;;;;;;;;;;15.45;61.62;97900.00;5116700;27;19923;-64
2023/10/12 02:21:26;;;;;;;;;;;;;;;15.44;61.53;97888.22;5106407;27;20217;-65
2023/10/12 02:24:15;;;;;;;;;;;;;;;15.40;61.37;97892.00;5112549;27;19930;-64
2023/10/12 02:27:04;;;;;;;;;;;;;;;15.43;61.22;97894.03;5114592;27;19938;-65
2023/10/12 02:29:56;;;;;;;;;;;;;;;15.43;61.36;97889.34;5112685;27;20053;-64
2023/10/12 02:32:54;;;;;;;;;;;;;;;15.45;61.12;97878.88;5103648;27;19924;-64
2023/10/12 02:35:44;;;;;;;;;;;;;;;15.45;61.24;97881.63;5107311;27;19923;-64
2023/10/12 02:38:36;;;;;;;;;;;;;;;15.43;61.42;97880.34;5111470;27;20381;-63
2023/10/12 02:41:25;;;;;;;;;;;;;;;15.43;61.48;97883.09;5116101;27;19923;-64
2023/10/12 02:44:14;;;;;;;;;;;;;;;15.45;61.33;97880.81;5118949;27;19970;-64
2023/10/12 02:47:12;;;;;;;;;;;;;;;15.44;61.36;97873.72;5112943;27;19981;-63
2023/10/12 02:50:14;;;;;;;;;;;;;;;15.47;61.42;97878.53;5105084;27;20031;-64
2023/10/12 02:53:08;;;;;;;;;;;;;;;15.45;61.46;97880.81;5101963;27;19951;-64
2023/10/12 02:56:01;;;;;;;;;;;;;;;15.44;61.42;97873.72;5104280;27;19935;-64
2023/10/12 02:58:49;;;;;;;;;;;;;;;15.44;61.38;97868.25;5102219;27;19927;-65
2023/10/12 03:01:38;;;;;;;;;;;;;;;15.44;61.32;97871.78;5108940;27;19932;-64
2023/10/12 03:04:29;;;;;;;;;;;;;;;15.43;61.35;97866.66;5110506;27;19932;-64
2023/10/12 03:07:23;;;;;;;;;;;;;;;15.43;61.64;97872.13;5115414;27;19946;-64
2023/10/12 03:10:24;;;;;;;;;;;;;;;15.43;61.63;97870.19;5111727;27;19930;-64
2023/10/12 03:13:24;;;;;;;;;;;;;;;15.43;61.62;97877.63;5109537;27;19924;-64
2023/10/12 03:16:20;;;;;;;;;;;;;;;15.41;61.62;97874.44;5100024;27;19976;-64
2023/10/12 03:19:22;;;;;;;;;;;;;;;15.39;61.54;97885.72;5104305;27;19930;-63
2023/10/12 03:22:23;;;;;;;;;;;;;;;15.37;61.56;97879.00;5108250;27;19924;-63
2023/10/12 03:25:19;;;;;;;;;;;;;;;15.38;61.93;97886.84;5102682;27;20372;-64
2023/10/12 03:28:12;;;;;;;;;;;;;;;15.39;61.83;97876.69;5096847;28;20029;-63
2023/10/12 03:31:15;;;;;;;;;;;;;;;15.37;61.92;97885.25;5093029;28;20391;-64
2023/10/12 03:34:16;;;;;;;;;;;;;;;15.39;61.89;97884.91;5112824;27;20018;-64
2023/10/12 03:37:06;;;;;;;;;;;;;;;15.40;61.87;97881.84;5104385;27;20012;-63
2023/10/12 03:39:59;;;;;;;;;;;;;;;15.42;61.86;97876.03;5117343;27;19930;-64
2023/10/12 03:42:52;;;;;;;;;;;;;;;15.38;62.28;97867.69;5110656;27;19931;-63
2023/10/12 03:46:00;;;;;;;;;;;;;;;15.41;62.18;97869.75;5115938;27;19930;-64
2023/10/12 03:49:04;;;;;;;;;;;;;;;15.40;61.97;97867.38;5115875;27;19923;-63
2023/10/12 03:51:57;;;;;;;;;;;;;;;15.41;62.04;97869.75;5106851;27;20435;-64
2023/10/12 03:54:55;;;;;;;;;;;;;;;15.42;62.15;97871.34;5116347;27;19924;-64
2023/10/12 03:57:50;;;;;;;;;;;;;;;15.42;62.28;97870.53;5105418;27;19932;-64
2023/10/12 04:00:48;;;;;;;;;;;;;;;15.40;62.25;97868.16;5103184;27;20446;-64
2023/10/12 04:03:37;;;;;;;;;;;;;;;15.43;62.32;97872.13;5110249;27;20036;-63
2023/10/12 04:06:46;;;;;;;;;;;;;;;15.43;62.26;97872.94;5112834;27;20289;-64
2023/10/12 04:09:42;;;;;;;;;;;;;;;15.45;62.51;97869.88;5112558;27;20421;-63
2023/10/12 04:12:35;;;;;;;;;;;;;;;15.46;62.37;97876.94;5111854;27;19924;-64
2023/10/12 04:15:35;;;;;;;;;;;;;;;15.43;62.34;97874.88;5108998;27;20051;-64
2023/10/12 04:18:28;;;;;;;;;;;;;;;15.45;62.31;97875.34;5110693;27;19927;-63
2023/10/12 04:21:18;;;;;;;;;;;;;;;15.47;62.30;97884.00;5109329;27;19942;-63
2023/10/12 04:27:38;;;;;;;;;;;;;;;15.43;62.23;97886.63;5102911;27;20380;-63
2023/10/12 04:30:33;;;;;;;;;;;;;;;15.46;62.31;97898.84;5105416;27;19923;-64
2023/10/12 04:33:24;;;;;;;;;;;;;;;15.48;62.52;97898.50;5100550;28;20061;-63
2023/10/12 04:36:24;;;;;;;;;;;;;;;15.48;62.17;97896.53;5099765;27;19931;-63
2023/10/12 04:39:17;;;;;;;;;;;;;;;15.47;62.50;97903.16;5098354;28;20710;-63
2023/10/12 04:42:11;;;;;;;;;;;;;;;15.46;62.50;97893.38;5104188;27;19928;-63
2023/10/12 04:45:23;;;;;;;;;;;;;;;15.47;62.35;97900.44;5111030;28;20300;-64
2023/10/12 04:48:18;;;;;;;;;;;;;;;15.49;62.35;97898.13;5101455;28;19931;-64
2023/10/12 04:51:07;;;;;;;;;;;;;;;15.48;62.44;97895.75;5093240;28;19945;-63
2023/10/12 04:54:04;;;;;;;;;;;;;;;15.48;62.53;97907.50;5096169;28;19924;-64
2023/10/12 04:57:13;;;;;;;;;;;;;;;15.49;62.46;97892.66;5099822;28;20509;-63
2023/10/12 05:00:09;;;;;;;;;;;;;;;15.53;62.66;97893.56;5112613;28;21992;-62
2023/10/12 05:03:22;;;;;;;;;;;;;;;15.47;62.47;97900.44;5103386;28;19941;-64
2023/10/12 05:06:13;;;;;;;;;;;;;;;15.44;62.58;97899.16;5062724;28;19956;-63
2023/10/12 05:09:10;;;;;;;;;;;;;;;15.46;62.30;97894.16;5061840;28;19932;-62
2023/10/12 05:11:59;;;;;;;;;;;;;;;15.45;62.24;97887.09;5073207;28;19985;-62
2023/10/12 05:14:55;;;;;;;;;;;;;;;15.44;62.16;97892.91;5070857;28;19932;-62
2023/10/12 05:17:43;;;;;;;;;;;;;;;15.42;62.19;97889.72;5063537;28;20405;-63
2023/10/12 05:20:32;;;;;;;;;;;;;;;15.39;62.22;97895.88;5064060;28;20039;-64
2023/10/12 05:23:20;;;;;;;;;;;;;;;15.37;62.33;97896.22;5071355;28;19934;-64
2023/10/12 05:26:09;;;;;;;;;;;;;;;15.35;62.39;97892.22;5063418;28;19973;-62
2023/10/12 05:32:06;;;;;;;;;;;;;;;15.35;62.77;97908.66;5068312;28;20034;-63
2023/10/12 05:34:57;;;;;;;;;;;;;;;15.35;62.46;97903.19;5065594;28;19928;-65
2023/10/12 05:37:49;;;;;;;;;;;;;;;15.33;62.63;97910.91;5063586;28;19928;-63
2023/10/12 05:40:42;;;;;;;;;;;;;;;15.32;62.84;97912.06;5069806;28;19955;-63
2023/10/12 05:43:33;;;;;;;;;;;;;;;15.33;62.96;97924.59;5065920;28;19997;-62
2023/10/12 05:46:21;;;;;;;;;;;;;;;15.33;63.02;97930.88;5070325;28;19931;-63
2023/10/12 05:49:13;;;;;;;;;;;;;;;15.35;62.76;97936.81;5070047;28;20412;-63
2023/10/12 05:52:06;;;;;;;;;;;;;;;15.31;63.17;97946.84;5083552;28;20011;-63
2023/10/12 05:54:58;;;;;;;;;;;;;;;15.28;63.34;97944.00;5073750;28;19928;-63
2023/10/12 05:57:48;;;;;;;;;;;;;;;15.30;63.32;97936.25;5069713;28;20567;-63
2023/10/12 06:00:44;;;;;;;;;;;;;;;15.32;63.19;97928.50;5054703;28;19925;-62
2023/10/12 06:03:32;;;;;;;;;;;;;;;15.32;63.25;97932.03;5080928;28;19931;-64
2023/10/12 06:06:21;;;;;;;;;;;;;;;15.33;63.30;97932.81;5099021;27;20343;-63
2023/10/12 06:09:11;;;;;;;;;;;;;;;15.37;63.20;97948.22;5107862;28;20014;-63
2023/10/12 06:12:00;;;;;;;;;;;;;;;15.41;62.91;97945.63;5107980;28;20280;-63
2023/10/12 06:14:53;;;;;;;;;;;;;;;15.41;62.97;97942.88;5109602;27;20308;-63
2023/10/12 06:17:49;;;;;;;;;;;;;;;15.45;62.98;97952.00;5115047;27;19928;-63
2023/10/12 06:20:40;;;;;;;;;;;;;;;15.50;62.96;97957.25;5109065;27;20325;-63
2023/10/12 06:23:28;;;;;;;;;;;;;;;15.49;62.98;97958.38;5107688;27;19935;-63
2023/10/12 06:26:28;;;;;;;;;;;;;;;15.51;63.02;97961.59;5107484;27;19971;-63
2023/10/12 06:29:26;;;;;;;;;;;;;;;15.46;63.10;97970.03;5112083;27;19992;-62
2023/10/12 06:32:19;;;;;;;;;;;;;;;15.50;63.15;97962.72;5101333;27;19931;-62
2023/10/12 06:35:24;;;;;;;;;;;;;;;15.57;62.88;97987.59;5097706;27;19923;-63
2023/10/12 06:38:23;;;;;;;;;;;;;;;15.62;62.99;97989.31;5107540;27;19928;-62
2023/10/12 06:41:57;;;;;;;;;;;;;;;15.65;63.14;98007.81;5102322;27;19924;-63
2023/10/12 06:44:40;;;;;;;;;;;;;;;15.69;63.46;98008.72;5108135;28;19927;-63
2023/10/12 06:47:41;;;;;;;;;;;;;;;15.71;63.21;98015.47;5107306;27;19928;-62
2023/10/12 06:50:34;;;;;;;;;;;;;;;15.76;63.14;98006.22;5109071;27;19924;-63
2023/10/12 06:53:24;;;;;;;;;;;;;;;15.81;63.03;98007.94;5113026;27;20013;-63
2023/10/12 06:56:24;;;;;;;;;;;;;;;15.85;63.13;98008.84;5103872;27;20427;-63
2023/10/12 06:59:21;;;;;;;;;;;;;;;15.88;63.18;98013.66;5114009;27;20009;-63
2023/10/12 07:02:11;;;;;;;;;;;;;;;15.91;63.38;98012.94;5112409;27;19930;-63
2023/10/12 07:05:00;;;;;;;;;;;;;;;15.92;63.25;98017.28;5110418;27;20924;-63
2023/10/12 07:07:51;;;;;;;;;;;;;;;15.97;63.30;98006.88;5100877;27;19931;-63
2023/10/12 07:10:50;;;;;;;;;;;;;;;16.04;63.26;98013.75;5104656;27;19931;-63
2023/10/12 07:13:41;;;;;;;;;;;;;;;16.08;63.44;98012.69;5109250;27;20725;-63
2023/10/12 07:16:31;;;;;;;;;;;;;;;16.11;63.63;98022.97;5100901;27;20068;-62
2023/10/12 07:19:24;;;;;;;;;;;;;;;16.10;63.20;98037.84;5108763;27;21797;-63
2023/10/12 07:22:16;;;;;;;;;;;;;;;16.15;63.12;98037.59;5109717;27;19931;-63
2023/10/12 07:25:07;;;;;;;;;;;;;;;16.21;63.27;98038.97;5110382;27;19928;-63
2023/10/12 07:27:59;;;;;;;;;;;;;;;16.27;63.10;98038.72;5108056;27;20019;-63
2023/10/12 07:33:59;;;;;;;;;;;;;;;16.36;62.67;98050.38;5104817;27;19923;-64
2023/10/12 07:36:57;;;;;;;;;;;;;;;16.40;62.70;98056.72;5108802;28;20586;-63
2023/10/12 07:39:46;;;;;;;;;;;;;;;16.43;62.93;98056.84;5107905;27;19930;-63
2023/10/12 07:42:39;;;;;;;;;;;;;;;16.47;63.18;98059.72;5110286;27;19932;-64
2023/10/12 07:45:29;;;;;;;;;;;;;;;16.44;63.22;98068.63;5109250;27;19930;-65
2023/10/12 07:48:31;;;;;;;;;;;;;;;16.47;63.12;98070.69;5106524;27;20466;-63
2023/10/12 07:51:24;;;;;;;;;;;;;;;16.52;62.99;98070.44;5101472;27;19923;-65
2023/10/12 07:54:42;;;;;;;;;;;;;;;16.56;62.96;98065.03;5104671;28;19973;-64
2023/10/12 07:57:23;;;;;;;;;;;;;;;16.60;63.15;98069.50;5114138;27;19928;-65
2023/10/12 08:00:34;;;;;;;;;;;;;;;16.56;63.13;98062.28;5103856;28;20041;-64
2023/10/12 08:03:25;;;;;;;;;;;;;;;16.59;63.22;98067.09;5096905;28;20541;-64
2023/10/12 08:06:15;;;;;;;;;;;;;;;16.65;63.34;98068.44;5100406;28;20758;-64
2023/10/12 08:09:05;;;;;;;;;;;;;;;16.66;63.55;98070.84;5098205;27;19933;-64
2023/10/12 08:11:54;;;;;;;;;;;;;;;16.68;63.86;98063.06;5098993;27;19928;-64
2023/10/12 08:14:42;;;;;;;;;;;;;;;16.67;63.92;98061.50;5102680;28;19924;-63
2023/10/12 08:17:34;;;;;;;;;;;;;;;16.70;63.93;98065.47;5116748;27;19931;-62
2023/10/12 08:23:27;;;;;;;;;;;;;;;16.75;63.68;98082.50;5111124;27;19928;-62
2023/10/12 08:26:33;;;;;;;;;;;;;;;16.77;63.73;98082.16;5110405;27;19923;-63
2023/10/12 08:32:34;;;;;;;;;;;;;;;16.84;63.53;98082.38;5108927;27;19923;-63
2023/10/12 08:35:39;;;;;;;;;;;;;;;16.85;63.75;98083.19;5111081;27;19932;-63
2023/10/12 08:38:33;;;;;;;;;;;;;;;16.89;63.84;98081.34;5089516;28;21178;-63
2023/10/12 08:41:21;;;;;;;;;;;;;;;16.91;64.06;98081.78;5101837;27;20018;-63
2023/10/12 08:44:09;;;;;;;;;;;;;;;16.92;64.41;98089.66;5102473;27;19924;-63
2023/10/12 08:47:07;;;;;;;;;;;;;;;16.93;64.69;98093.19;5096825;28;19963;-62
2023/10/12 08:50:04;;;;;;;;;;;;;;;16.94;64.76;98087.38;5102030;28;19932;-63
2023/10/12 08:52:51;;;;;;;;;;;;;;;16.99;65.04;98080.81;5101191;28;19931;-63
2023/10/12 08:55:41;;;;;;;;;;;;;;;17.00;65.26;98082.44;5095843;28;19924;-63
2023/10/12 08:58:38;;;;;;;;;;;;;;;17.02;65.25;98072.69;5092750;28;20456;-63
2023/10/12 09:01:31;;;;;;;;;;;;;;;17.04;65.43;98080.56;5098246;28;20034;-63
2023/10/12 09:04:22;;;;;;;;;;;;;;;17.06;65.20;98072.81;5098580;28;19947;-64
2023/10/12 09:07:16;;;;;;;;;;;;;;;17.08;64.92;98065.00;5105157;28;20007;-64
2023/10/12 09:10:26;;;;;;;;;;;;;;;17.10;64.79;98059.97;5097929;28;20402;-63
2023/10/12 09:13:17;;;;;;;;;;;;;;;17.13;65.08;98064.75;5098547;28;19934;-63
2023/10/12 09:16:09;;;;;;;;;;;;;;;17.17;65.07;98068.41;5106331;28;19924;-63
2023/10/12 09:18:59;;;;;;;;;;;;;;;17.20;65.00;98067.69;5111639;28;20350;-63
2023/10/12 09:21:57;;;;;;;;;;;;;;;17.22;64.96;98068.16;5102304;28;20014;-64
2023/10/12 09:24:50;;;;;;;;;;;;;;;17.25;64.77;98069.38;5100886;28;19924;-63
2023/10/12 09:27:49;;;;;;;;;;;;;;;17.28;65.07;98074.97;5099632;28;19928;-63
2023/10/12 09:30:44;;;;;;;;;;;;;;;17.31;65.11;98075.41;5105025;28;20278;-63
2023/10/12 09:36:37;;;;;;;;;;;;;;;17.37;64.93;98079.53;5108603;28;19924;-63
2023/10/12 09:39:27;;;;;;;;;;;;;;;17.40;65.14;98078.81;5103917;28;19923;-64
2023/10/12 09:42:22;;;;;;;;;;;;;;;17.41;64.84;98078.44;5095970;27;20020;-65
2023/10/12 09:45:11;;;;;;;;;;;;;;;17.42;64.83;98074.56;5108581;27;19928;-65
2023/10/12 09:48:24;;;;;;;;;;;;;;;17.43;64.74;98073.41;5090768;28;20377;-66
2023/10/12 09:51:15;;;;;;;;;;;;;;;17.47;64.65;98074.31;5094352;28;19928;-65
2023/10/12 09:54:09;;;;;;;;;;;;;;;17.50;64.02;98075.53;5093716;28;19951;-65
2023/10/12 09:57:03;;;;;;;;;;;;;;;17.53;63.67;98070.16;5094630;28;19928;-64
2023/10/12 09:59:59;;;;;;;;;;;;;;;17.55;61.99;98070.59;5104165;28;19967;-65
2023/10/12 10:02:49;;;;;;;;;;;;;;;17.59;61.61;98072.63;5100525;28;19925;-64
2023/10/12 10:05:52;;;;;;;;;;;;;;;17.61;61.00;98073.88;5052584;28;20064;-64
2023/10/12 10:08:45;;;;;;;;;;;;;;;17.63;61.35;98059.75;5056220;28;19932;-65
2023/10/12 10:11:33;;;;;;;;;;;;;;;17.65;61.36;98060.22;5056456;28;19951;-65
2023/10/12 10:14:26;;;;;;;;;;;;;;;17.68;61.39;98070.50;5056349;28;20702;-65
2023/10/12 10:17:15;;;;;;;;;;;;;;;17.71;61.04;98058.81;5050389;28;19929;-64
2023/10/12 10:20:33;;;;;;;;;;;;;;;17.72;60.85;98065.91;5054006;28;19925;-64
2023/10/12 10:23:19;;;;;;;;;;;;;;;17.72;60.74;98069.47;5056043;28;19925;-65
2023/10/12 10:26:17;;;;;;;;;;;;;;;17.73;60.52;98073.81;5054858;28;19929;-64
2023/10/12 10:29:05;;;;;;;;;;;;;;;17.76;60.11;98083.31;5055114;28;19932;-65
2023/10/12 10:31:53;;;;;;;;;;;;;;;17.76;60.11;98073.09;5054433;28;19932;-65
2023/10/12 10:34:44;;;;;;;;;;;;;;;17.78;59.73;98078.25;5053118;28;20370;-64
2023/10/12 10:37:47;;;;;;;;;;;;;;;17.80;59.30;98084.19;5050102;28;19986;-65
2023/10/12 10:40:44;;;;;;;;;;;;;;;17.84;59.20;98078.78;5053234;28;19928;-64
2023/10/12 10:43:34;;;;;;;;;;;;;;;17.85;59.16;98083.16;5056583;28;19924;-64
2023/10/12 10:46:26;;;;;;;;;;;;;;;17.86;59.24;98076.50;5059049;28;19940;-65
2023/10/12 10:49:16;;;;;;;;;;;;;;;17.90;59.41;98080.13;5056698;28;19925;-64
2023/10/12 10:52:17;;;;;;;;;;;;;;;17.91;59.17;98078.97;5054794;28;19978;-64
2023/10/12 10:54:56;;;;;;;;;;;;;;;17.94;59.29;98075.50;5062744;28;19932;-64
2023/10/12 10:57:32;;;;;;;;;;;;;;;17.97;59.26;98077.53;5063761;28;20277;-64
2023/10/12 11:00:10;;;;;;;;;;;;;;;17.99;59.25;98080.72;5060200;28;19978;-65
2023/10/12 11:02:38;;;;;;;;;;;;;;;18.02;59.34;98075.31;5062437;28;19963;-64
2023/10/12 11:05:10;;;;;;;;;;;;;;;18.05;59.45;98079.28;5102929;27;20342;-64
2023/10/12 11:07:50;;;;;;;;;;;;;;;18.06;59.46;98089.16;5104335;27;20010;-64
2023/10/12 11:10:31;;;;;;;;;;;;;;;18.08;59.54;98080.53;5113104;27;19924;-65
2023/10/12 11:13:00;;;;;;;;;;;;;;;18.11;59.54;98077.91;5101587;28;19928;-63
2023/10/12 11:15:28;;;;;;;;;;;;;;;18.12;59.43;98075.94;5109056;27;19924;-64
2023/10/12 11:18:07;;;;;;;;;;;;;;;18.14;59.46;98079.91;5103138;28;19927;-64
2023/10/12 11:20:43;;;;;;;;;;;;;;;18.17;59.17;98076.47;5111690;27;19931;-63
2023/10/12 11:23:38;;;;;;;;;;;;;;;18.19;59.15;98076.88;5123788;27;19924;-64
2023/10/12 11:27:21;;;;;;;;;;;;;;;18.21;59.30;98079.28;5101035;27;19942;-64
2023/10/12 13:30:41;;;;;;;;;;;;;;;18.55;66.53;98037.22;5846237;23;19939;-92
2023/10/12 13:33:31;;;;;;;;;;;;;;;18.56;67.06;98044.31;4924064;29;20575;-86
2023/10/12 13:36:19;;;;;;;;;;;;;;;18.57;67.14;98045.13;4929950;29;19927;-80
2023/10/12 13:39:10;;;;;;;;;;;;;;;18.56;67.32;98043.53;4910808;29;19938;-80
2023/10/12 13:41:39;;;;;;;;;;;;;;;18.56;67.58;98040.78;4938503;28;19930;-81
2023/10/12 13:44:07;;;;;;;;;;;;;;;18.55;68.27;98033.69;4930582;29;19991;-81
2023/10/12 13:46:38;;;;;;;;;;;;;;;18.49;68.53;98026.88;4929873;29;19933;-80
2023/10/12 13:49:06;;;;;;;;;;;;;;;18.50;69.43;98028.47;4916515;29;20355;-80
2023/10/12 13:51:36;;;;;;;;;;;;;;;18.45;70.66;98021.28;4943524;28;19935;-82
2023/10/12 13:54:06;;;;;;;;;;;;;;;18.43;70.63;98015.38;4937992;29;19927;-81
2023/10/12 13:56:35;;;;;;;;;;;;;;;18.43;71.06;98009.03;4929649;29;20334;-80
2023/10/12 13:59:02;;;;;;;;;;;;;;;18.40;71.39;98007.03;4930782;29;19966;-81
2023/10/12 14:01:36;;;;;;;;;;;;;;;18.39;71.83;97995.22;4925663;29;19953;-85
2023/10/12 14:04:28;;;;;;;;;;;;;;;18.36;73.35;97992.38;4923821;29;20394;-78
2023/10/12 14:07:00;;;;;;;;;;;;;;;18.35;73.63;97999.06;4921049;28;19935;-78
2023/10/12 14:09:28;;;;;;;;;;;;;;;18.36;73.74;98000.66;4927095;29;19935;-80
2023/10/12 14:11:57;;;;;;;;;;;;;;;18.35;73.69;97999.06;4933405;29;20765;-81
2023/10/12 14:14:25;;;;;;;;;;;;;;;18.35;73.62;98010.06;4929159;29;19989;-84
2023/10/12 14:16:53;;;;;;;;;;;;;;;18.35;73.94;98018.31;4920239;29;20104;-87
2023/10/12 14:19:25;;;;;;;;;;;;;;;18.30;73.93;98019.38;4925207;29;19930;-86
2023/10/12 14:21:54;;;;;;;;;;;;;;;18.30;74.07;98022.94;4929410;29;20504;-85
2023/10/12 14:24:23;;;;;;;;;;;;;;;18.30;74.96;98028.44;4918733;29;20398;-85
2023/10/12 14:27:00;;;;;;;;;;;;;;;18.26;74.27;98024.00;4946416;29;19927;-84
2023/10/12 14:29:29;;;;;;;;;;;;;;;18.27;74.55;98026.41;4919081;29;20382;-85
2023/10/12 14:31:58;;;;;;;;;;;;;;;18.28;74.81;98025.25;4931835;29;20468;-85
2023/10/12 14:34:27;;;;;;;;;;;;;;;18.26;75.01;98019.28;4939438;29;20293;-85
2023/10/12 14:36:55;;;;;;;;;;;;;;;18.27;75.58;98020.91;4936174;29;19954;-85
2023/10/12 14:39:24;;;;;;;;;;;;;;;18.27;75.55;98015.41;4936471;29;19931;-85
2023/10/12 14:41:52;;;;;;;;;;;;;;;18.26;75.09;98016.53;4918398;29;19926;-85
2023/10/12 14:44:20;;;;;;;;;;;;;;;18.27;75.23;98004.41;4933669;29;19931;-85
2023/10/12 14:46:50;;;;;;;;;;;;;;;18.23;75.43;97987.03;4927200;29;20353;-85
2023/10/12 14:49:18;;;;;;;;;;;;;;;18.14;74.92;97971.88;4934871;29;20021;-89
2023/10/12 14:51:48;;;;;;;;;;;;;;;18.11;74.78;97973.41;4934939;29;19981;-89
2023/10/12 14:54:20;;;;;;;;;;;;;;;18.16;74.66;97978.59;4934534;29;19938;-86
2023/10/12 14:56:47;;;;;;;;;;;;;;;18.18;74.81;97983.75;4930244;29;19934;-88
2023/10/12 14:59:40;;;;;;;;;;;;;;;18.21;75.83;97983.81;4925431;29;19970;-83
2023/10/12 15:02:09;;;;;;;;;;;;;;;18.22;75.89;97979.94;4923967;28;19939;-83
2023/10/12 15:04:41;;;;;;;;;;;;;;;18.22;75.91;97979.94;4900034;29;19935;-83
2023/10/12 15:07:12;;;;;;;;;;;;;;;18.19;75.99;97980.66;4926726;29;19998;-83
2023/10/12 15:09:48;;;;;;;;;;;;;;;18.17;76.54;97988.47;4914730;29;20330;-83
2023/10/12 15:12:16;;;;;;;;;;;;;;;18.12;77.02;97988.75;4925405;29;19930;-83
2023/10/12 15:14:46;;;;;;;;;;;;;;;18.08;76.87;97979.63;4931002;29;20413;-83
2023/10/12 15:17:18;;;;;;;;;;;;;;;18.07;77.34;97994.53;4928126;29;19927;-86
2023/10/12 15:19:47;;;;;;;;;;;;;;;18.05;77.60;97996.81;4939841;29;20382;-84
2023/10/12 15:22:18;;;;;;;;;;;;;;;18.03;77.58;97999.13;4933521;29;19927;-84
2023/10/12 15:24:46;;;;;;;;;;;;;;;18.03;77.63;97999.13;4919642;29;20554;-83
2023/10/12 15:27:14;;;;;;;;;;;;;;;18.05;77.64;97989.38;4933584;29;19990;-83
2023/10/12 15:29:41;;;;;;;;;;;;;;;18.04;77.48;97976.00;4932573;29;20385;-84
2023/10/12 15:32:20;;;;;;;;;;;;;;;17.97;77.63;97978.59;5079175;23;20282;31
2023/10/12 15:37:34;;;;;;;;;;;;;;;17.91;77.88;97982.78;4926320;29;19971;-79
2023/10/12 15:40:08;;;;;;;;;;;;;;;17.85;77.68;97982.25;4916665;29;19927;-95
2023/10/12 15:42:36;;;;;;;;;;;;;;;17.82;77.55;97971.97;4920186;29;20022;-92
2023/10/12 15:45:07;;;;;;;;;;;;;;;17.80;77.42;97964.09;4916943;29;19934;-88
2023/10/12 15:47:34;;;;;;;;;;;;;;;17.82;77.82;97971.97;4936200;28;19930;-88
2023/10/12 15:50:06;;;;;;;;;;;;;;;17.81;78.19;97986.84;4937418;29;19927;-94
2023/10/12 15:52:35;;;;;;;;;;;;;;;17.70;75.79;97997.56;4907008;29;19934;-95
2023/10/12 15:55:03;;;;;;;;;;;;;;;17.69;75.34;97990.47;4943712;29;20009;-95
2023/10/12 15:57:31;;;;;;;;;;;;;;;17.69;76.11;97997.94;4920588;29;19931;-90
2023/10/12 16:00:00;;;;;;;;;;;;;;;17.71;76.76;98023.09;4935528;29;19931;-96
2023/10/12 16:02:32;;;;;;;;;;;;;;;17.68;76.96;98005.34;4918550;29;20013;-94
2023/10/12 16:05:05;;;;;;;;;;;;;;;17.63;76.57;97986.41;4915151;29;19927;-93
2023/10/12 16:07:35;;;;;;;;;;;;;;;17.65;77.20;98000.59;4936425;29;19927;-91
2023/10/12 16:10:09;;;;;;;;;;;;;;;17.60;77.00;98027.53;4920268;29;19931;-91
2023/10/12 16:12:37;;;;;;;;;;;;;;;17.54;78.13;98043.47;4911955;29;19927;-90
2023/10/12 16:15:06;;;;;;;;;;;;;;;17.45;75.91;98020.88;4921657;29;19927;-86
2023/10/12 16:17:35;;;;;;;;;;;;;;;17.34;74.61;98017.06;4932812;29;19927;-89
2023/10/12 16:20:05;;;;;;;;;;;;;;;17.32;74.69;98027.59;4905413;29;19977;-93
2023/10/12 16:22:41;;;;;;;;;;;;;;;17.31;74.88;98026.00;4937557;28;19927;-89
2023/10/12 16:25:10;;;;;;;;;;;;;;;17.28;75.07;98024.75;4930700;29;19928;-92
2023/10/12 16:27:38;;;;;;;;;;;;;;;17.24;75.53;98018.38;4917521;29;20307;-92
2023/10/12 16:30:13;;;;;;;;;;;;;;;17.15;74.67;98025.97;4928180;29;19976;-93
2023/10/12 16:32:44;;;;;;;;;;;;;;;17.11;75.39;98028.63;4904277;29;20021;-93
2023/10/12 16:35:12;;;;;;;;;;;;;;;17.07;74.76;98030.47;4933724;29;19927;-94
2023/10/12 16:37:44;;;;;;;;;;;;;;;17.07;75.32;98022.25;4912476;29;19927;-93
2023/10/12 16:40:16;;;;;;;;;;;;;;;17.06;75.81;98015.16;4920741;29;20409;-91
2023/10/12 16:42:44;;;;;;;;;;;;;;;17.06;75.79;98019.84;4940319;29;19961;-93
2023/10/12 16:45:14;;;;;;;;;;;;;;;16.95;76.49;97989.38;4941934;29;20374;-94
2023/10/12 16:47:42;;;;;;;;;;;;;;;16.94;77.03;97991.31;4913127;29;20446;-90
2023/10/12 16:50:10;;;;;;;;;;;;;;;16.98;77.42;98000.44;4914240;29;19930;-95
2023/10/12 16:52:39;;;;;;;;;;;;;;;17.04;78.15;98003.72;4936345;29;19931;-93
2023/10/12 16:55:35;;;;;;;;;;;;;;;17.07;78.16;98007.72;4932770;29;19927;-93